CG Steadfast — NSTF — position and weather

sailwx.info

Track history (hours):
 
Tides and Currents Weather Stations Pressure Air Temp Water Temp Dewpoint Dewpoint Depression Visibility Wind Speed Wind Dir Waves Ship Positions

CG Steadfast

Last reported at 2018-Feb-24 19:24 UTC. Time now 2018-Feb-24 21:50 UTC.
Position N 33°42' W 118°32'.

Length 64 m; draft 4 m.

Type: SAR. MMSI: 367265000.

Date/timePositionNaut miles runAvg speedWind from/ knotsBaromVisibWave heightAir tempDewpointWater temp
2018-Feb-24 19:24N 33°42' W 118°32'613.8
2018-Feb-24 19:00N 33°44' W 118°38'713.4
2018-Feb-24 18:30N 33°48' W 118°45'813.7
2018-Feb-24 17:56N 33°52' W 118°53'613.9
2018-Feb-24 17:30N 33°55' W 118°59'713.8
2018-Feb-24 17:00N 33°58' W 119°07'713.9
2018-Feb-24 16:30N 34°01' W 119°14'714.0
2018-Feb-24 16:00N 34°04' W 119°22'714.0
2018-Feb-24 15:29N 34°06' W 119°30'713.8
2018-Feb-24 14:58N 34°08' W 119°38'613.6
2018-Feb-24 14:30N 34°10' W 119°46'713.7
2018-Feb-24 14:00N 34°12' W 119°54'713.9
2018-Feb-24 13:30N 34°13' W 120°02'713.6
2018-Feb-24 13:00N 34°15' W 120°10'713.3
2018-Feb-24 12:26N 34°17' W 120°18'613.4
2018-Feb-24 12:00N 34°18' W 120°25'713.7
2018-Feb-24 11:30N 34°20' W 120°33'713.6
2018-Feb-24 11:00N 34°22' W 120°41'713.4
2018-Feb-24 10:30N 34°24' W 120°49'713.5
2018-Feb-24 10:01N 34°26' W 120°57'713.3
2018-Feb-24 09:30N 34°27' W 121°05'713.3
2018-Feb-24 09:00N 34°32' W 121°11'713.6
2018-Feb-24 08:30N 34°37' W 121°16'713.5
2018-Feb-24 08:00N 34°43' W 121°20'713.4
2018-Feb-24 07:30N 34°48' W 121°25'713.9
2018-Feb-24 07:00N 34°53' W 121°30'713.6
2018-Feb-24 06:30N 34°59' W 121°35'713.7
2018-Feb-24 06:00N 35°04' W 121°40'63012.7
2018-Feb-22 04:23N 45°18' W 124°48'513.6
2018-Feb-22 04:00N 45°23' W 124°45'713.9
2018-Feb-22 03:31N 45°29' W 124°41'713.9
2018-Feb-22 03:00N 45°35' W 124°37'714.0
2018-Feb-22 02:30N 45°42' W 124°33'714.0
2018-Feb-22 02:00N 45°48' W 124°28'713.6
2018-Feb-22 01:30N 45°54' W 124°24'713.4
2018-Feb-22 01:00N 45°60' W 124°20'4 8.4
2018-Feb-22 00:30N 46°04' W 124°17'4 8.0
2018-Feb-22 00:01N 46°07' W 124°14'714.2
2018-Feb-21 23:30N 46°13' W 124°08'611.0
2018-Feb-21 23:00N 46°15' W 124°01'611.6
2018-Feb-21 22:30N 46°11' W 123°54'4 7.1
2018-Feb-21 22:00N 46°12' W 123°49'0 0.4
2018-Feb-21 21:30N 46°11' W 123°49'0 0.0
2018-Feb-21 20:59N 46°11' W 123°49'0 0.0
2018-Feb-21 20:26N 46°11' W 123°49'0 0.0
2018-Feb-21 19:59N 46°11' W 123°49'0 0.0
2018-Feb-21 19:29N 46°11' W 123°49'0 0.0
2018-Feb-21 18:59N 46°11' W 123°49'  
Track history (hours):
 
Tides and Currents Weather Stations Pressure Air Temp Water Temp Dewpoint Dewpoint Depression Visibility Wind Speed Wind Dir Waves Ship Positions

CG Steadfast

Last reported at 2018-Feb-24 19:24 UTC. Time now 2018-Feb-24 21:50 UTC.
Position N 33°42' W 118°32'.

Length 64 m; draft 4 m.

Type: SAR. MMSI: 367265000.

Date/timePositionNaut miles runAvg speedWind from/ knotsBaromVisibWave heightAir tempDewpointWater temp
2018-Feb-24 19:24N 33°42' W 118°32'613.8
2018-Feb-24 19:00N 33°44' W 118°38'713.4
2018-Feb-24 18:30N 33°48' W 118°45'813.7
2018-Feb-24 17:56N 33°52' W 118°53'613.9
2018-Feb-24 17:30N 33°55' W 118°59'713.8
2018-Feb-24 17:00N 33°58' W 119°07'713.9
2018-Feb-24 16:30N 34°01' W 119°14'714.0
2018-Feb-24 16:00N 34°04' W 119°22'714.0
2018-Feb-24 15:29N 34°06' W 119°30'713.8
2018-Feb-24 14:58N 34°08' W 119°38'613.6
2018-Feb-24 14:30N 34°10' W 119°46'713.7
2018-Feb-24 14:00N 34°12' W 119°54'713.9
2018-Feb-24 13:30N 34°13' W 120°02'713.6
2018-Feb-24 13:00N 34°15' W 120°10'713.3
2018-Feb-24 12:26N 34°17' W 120°18'613.4
2018-Feb-24 12:00N 34°18' W 120°25'713.7
2018-Feb-24 11:30N 34°20' W 120°33'713.6
2018-Feb-24 11:00N 34°22' W 120°41'713.4
2018-Feb-24 10:30N 34°24' W 120°49'713.5
2018-Feb-24 10:01N 34°26' W 120°57'713.3
2018-Feb-24 09:30N 34°27' W 121°05'713.3
2018-Feb-24 09:00N 34°32' W 121°11'713.6
2018-Feb-24 08:30N 34°37' W 121°16'713.5
2018-Feb-24 08:00N 34°43' W 121°20'713.4
2018-Feb-24 07:30N 34°48' W 121°25'713.9
2018-Feb-24 07:00N 34°53' W 121°30'713.6
2018-Feb-24 06:30N 34°59' W 121°35'713.7
2018-Feb-24 06:00N 35°04' W 121°40'63012.7
2018-Feb-22 04:23N 45°18' W 124°48'513.6
2018-Feb-22 04:00N 45°23' W 124°45'713.9
2018-Feb-22 03:31N 45°29' W 124°41'713.9
2018-Feb-22 03:00N 45°35' W 124°37'714.0
2018-Feb-22 02:30N 45°42' W 124°33'714.0
2018-Feb-22 02:00N 45°48' W 124°28'713.6
2018-Feb-22 01:30N 45°54' W 124°24'713.4
2018-Feb-22 01:00N 45°60' W 124°20'4 8.4
2018-Feb-22 00:30N 46°04' W 124°17'4 8.0
2018-Feb-22 00:01N 46°07' W 124°14'714.2
2018-Feb-21 23:30N 46°13' W 124°08'611.0
2018-Feb-21 23:00N 46°15' W 124°01'611.6
2018-Feb-21 22:30N 46°11' W 123°54'4 7.1
2018-Feb-21 22:00N 46°12' W 123°49'0 0.4
2018-Feb-21 21:30N 46°11' W 123°49'0 0.0
2018-Feb-21 20:59N 46°11' W 123°49'0 0.0
2018-Feb-21 20:26N 46°11' W 123°49'0 0.0
2018-Feb-21 19:59N 46°11' W 123°49'0 0.0
2018-Feb-21 19:29N 46°11' W 123°49'0 0.0
2018-Feb-21 18:59N 46°11' W 123°49'  

Dump ship's entire track history